Time;durP1;ratioP1;P1;durP2;ratioP2;P2;SDS_P1;SDS_P2;PMS_P1;PMS_P2;Temp;Humidity;BMP_temperature;BMP_pressure;BME280_temperature;BME280_humidity;BME280_pressure;Samples;Min_cycle;Max_cycle;Signal;HPM_P1;HPM_P2
2023/12/30 00:01:46;;;;;;;33.57;26.80;;;;;;;4.43;64.05;95227.47;5075513;28;20233;-71
2023/12/30 00:04:11;;;;;;;33.87;26.17;;;;;;;4.39;64.63;95234.66;5076054;28;20203;-71
2023/12/30 00:06:37;;;;;;;33.60;26.87;;;;;;;4.56;63.64;95236.06;5081312;28;20180;-70
2023/12/30 00:09:02;;;;;;;36.00;26.40;;;;;;;4.27;64.49;95230.31;5070032;28;20251;-70
2023/12/30 00:11:28;;;;;;;35.57;26.37;;;;;;;4.22;64.99;95237.59;5063672;28;20224;-70
2023/12/30 00:13:53;;;;;;;36.40;27.10;;;;;;;4.10;65.64;95248.91;5082070;28;20220;-71
2023/12/30 00:16:19;;;;;;;33.20;24.90;;;;;;;4.05;65.93;95237.97;5072310;28;20268;-70
2023/12/30 00:18:44;;;;;;;32.63;25.40;;;;;;;4.18;65.25;95237.00;5073865;28;20196;-70
2023/12/30 00:21:09;;;;;;;31.60;24.23;;;;;;;4.04;65.15;95231.13;5073975;28;20220;-70
2023/12/30 00:23:35;;;;;;;30.60;24.40;;;;;;;4.10;64.97;95233.28;5079999;28;20215;-68
2023/12/30 00:26:01;;;;;;;31.03;24.33;;;;;;;4.19;64.88;95238.66;5067302;28;20299;-70
2023/12/30 00:28:27;;;;;;;33.70;24.73;;;;;;;4.22;64.53;95244.59;5075466;28;20228;-70
2023/12/30 00:30:52;;;;;;;31.47;24.33;;;;;;;4.20;64.97;95249.94;5073605;28;20184;-69
2023/12/30 00:33:17;;;;;;;30.07;24.30;;;;;;;4.29;64.61;95248.44;5073892;28;20239;-70
2023/12/30 00:35:43;;;;;;;29.87;24.57;;;;;;;4.17;65.27;95248.38;5073922;28;20304;-70
2023/12/30 00:38:08;;;;;;;32.67;24.57;;;;;;;4.31;65.03;95251.78;5073406;28;20227;-70
2023/12/30 00:40:34;;;;;;;29.07;23.33;;;;;;;4.23;65.59;95252.31;5064771;28;20228;-71
2023/12/30 00:42:59;;;;;;;31.97;24.27;;;;;;;4.20;65.14;95250.75;5074003;28;20193;-68
2023/12/30 00:45:25;;;;;;;33.57;24.77;;;;;;;4.20;65.30;95250.75;5079068;28;20188;-70
2023/12/30 00:47:50;;;;;;;29.37;22.23;;;;;;;4.23;64.53;95251.47;5072168;28;20219;-70
2023/12/30 00:50:16;;;;;;;31.10;23.40;;;;;;;4.15;65.02;95250.25;5073335;28;20241;-69
2023/12/30 00:52:41;;;;;;;28.43;23.87;;;;;;;4.16;65.06;95256.28;5063183;28;20290;-71
2023/12/30 00:55:07;;;;;;;32.00;22.83;;;;;;;4.13;65.42;95253.88;5074948;28;20220;-69
2023/12/30 00:57:32;;;;;;;27.70;20.57;;;;;;;4.21;65.52;95259.38;5083754;28;20189;-70
2023/12/30 00:59:58;;;;;;;30.13;22.30;;;;;;;4.22;65.42;95255.84;5075883;28;20217;-70
2023/12/30 01:02:24;;;;;;;27.73;22.33;;;;;;;4.08;65.93;95255.97;5073397;28;20285;-70
2023/12/30 01:04:49;;;;;;;32.63;23.40;;;;;;;3.98;66.20;95250.56;5070863;28;20270;-69
2023/12/30 01:07:14;;;;;;;31.80;24.50;;;;;;;4.04;65.57;95250.16;5075830;28;20188;-70
2023/12/30 01:09:40;;;;;;;29.40;23.80;;;;;;;4.06;65.58;95250.84;5074261;28;20265;-70
2023/12/30 01:12:06;;;;;;;30.87;25.33;;;;;;;4.00;65.44;95248.69;5062290;28;20316;-70
2023/12/30 01:14:31;;;;;;;27.57;23.27;;;;;;;3.84;65.34;95250.69;5056252;28;20220;-70
2023/12/30 01:16:56;;;;;;;32.30;24.17;;;;;;;3.74;65.83;95259.13;5073819;28;20274;-70
2023/12/30 01:19:23;;;;;;;31.63;24.37;;;;;;;3.92;65.16;95249.22;5071396;28;20220;-69
2023/12/30 01:21:49;;;;;;;35.53;26.77;;;;;;;3.70;65.79;95256.84;5074483;28;20196;-70
2023/12/30 01:24:14;;;;;;;37.87;27.27;;;;;;;3.68;65.71;95258.69;5065173;28;20228;-70
2023/12/30 01:26:39;;;;;;;36.37;27.33;;;;;;;3.74;65.51;95251.31;5075751;28;20216;-70
2023/12/30 01:29:05;;;;;;;35.67;25.73;;;;;;;3.60;65.54;95258.38;5065853;28;20301;-70
2023/12/30 01:31:30;;;;;;;36.53;26.73;;;;;;;3.71;65.01;95246.31;5073596;28;20278;-70
2023/12/30 01:33:56;;;;;;;33.97;26.03;;;;;;;3.78;64.96;95246.75;5078714;28;20193;-71
2023/12/30 01:36:21;;;;;;;32.97;26.07;;;;;;;3.83;64.74;95239.47;5072467;28;20223;-69
2023/12/30 01:38:47;;;;;;;32.53;25.97;;;;;;;3.78;64.65;95249.34;5075394;28;20297;-69
2023/12/30 01:41:12;;;;;;;31.83;24.97;;;;;;;3.69;64.99;95240.41;5079183;28;20227;-70
2023/12/30 01:43:37;;;;;;;35.43;26.27;;;;;;;3.72;64.74;95242.78;5073301;28;20229;-71
2023/12/30 01:46:09;;;;;;;32.77;25.83;;;;;;;3.76;64.62;95240.81;5072069;28;20275;-70
2023/12/30 01:48:35;;;;;;;33.27;26.60;;;;;;;3.67;65.09;95241.44;5068532;28;20193;-69
2023/12/30 01:51:02;;;;;;;35.10;25.13;;;;;;;3.67;65.18;95246.66;5070381;28;20336;-69
2023/12/30 01:53:35;;;;;;;33.83;26.30;;;;;;;3.68;64.76;95243.09;5066682;28;20244;-70
2023/12/30 01:56:00;;;;;;;30.50;24.53;;;;;;;3.63;65.23;95235.59;5079586;28;20217;-70
2023/12/30 01:58:26;;;;;;;33.20;25.10;;;;;;;3.69;65.13;95234.38;5084638;28;20220;-70
2023/12/30 02:00:52;;;;;;;32.27;25.13;;;;;;;3.66;65.58;95234.56;5077187;28;20189;-70
2023/12/30 02:03:18;;;;;;;34.23;26.43;;;;;;;3.71;65.35;95227.28;5074037;28;20232;-69
2023/12/30 02:05:47;;;;;;;33.83;25.77;;;;;;;3.72;65.41;95218.56;5075591;28;20216;-71
2023/12/30 02:08:14;;;;;;;30.53;24.23;;;;;;;3.81;64.91;95223.13;5073386;28;20236;-70
2023/12/30 02:10:39;;;;;;;30.70;23.30;;;;;;;3.75;64.88;95213.97;5078252;28;20217;-71
2023/12/30 02:13:05;;;;;;;32.10;25.40;;;;;;;3.72;65.08;95214.19;5076778;28;20279;-70
2023/12/30 02:15:30;;;;;;;30.50;25.27;;;;;;;3.69;65.78;95218.78;5075833;28;20197;-70
2023/12/30 02:17:56;;;;;;;34.23;24.17;;;;;;;3.81;65.34;95217.91;5060837;28;20353;-69
2023/12/30 02:20:23;;;;;;;38.13;27.23;;;;;;;3.55;66.30;95219.69;5070724;28;20216;-69
2023/12/30 02:22:49;;;;;;;37.73;28.70;;;;;;;3.65;65.98;95222.50;5078668;28;20238;-69
2023/12/30 02:25:15;;;;;;;34.53;27.27;;;;;;;3.57;65.84;95217.00;5084075;28;20195;-69
2023/12/30 02:27:44;;;;;;;36.67;25.80;;;;;;;3.43;65.88;95228.34;5077886;28;20185;-69
2023/12/30 02:30:11;;;;;;;34.30;26.73;;;;;;;3.57;65.62;95222.19;5065076;28;20263;-70
2023/12/30 02:32:36;;;;;;;40.43;26.63;;;;;;;3.54;65.20;95229.25;5063514;28;20231;-69
2023/12/30 02:35:02;;;;;;;34.50;26.63;;;;;;;3.53;65.53;95224.19;5079275;28;20229;-70
2023/12/30 02:37:28;;;;;;;32.83;25.63;;;;;;;3.41;65.69;95225.81;5066304;28;20242;-70
2023/12/30 02:39:53;;;;;;;35.43;25.97;;;;;;;3.39;65.47;95216.47;5075106;28;20189;-69
2023/12/30 02:42:18;;;;;;;37.30;26.17;;;;;;;3.49;65.49;95230.50;5073407;28;20244;-71
2023/12/30 02:44:44;;;;;;;32.80;25.87;;;;;;;3.39;65.86;95227.69;5074598;28;20280;-70
2023/12/30 02:47:09;;;;;;;31.83;25.23;;;;;;;3.44;65.50;95230.81;5081854;28;20212;-70
2023/12/30 02:49:35;;;;;;;31.60;24.43;;;;;;;3.41;65.44;95228.44;5078910;28;20224;-69
2023/12/30 02:52:00;;;;;;;29.23;24.47;;;;;;;3.47;65.78;95224.56;5074998;28;20217;-70
2023/12/30 02:54:27;;;;;;;27.60;23.10;;;;;;;3.32;66.48;95221.25;5086724;28;20193;-70
2023/12/30 02:56:52;;;;;;;31.10;24.37;;;;;;;3.39;66.14;95222.50;5072722;28;20216;-70
2023/12/30 02:59:18;;;;;;;32.93;25.73;;;;;;;3.49;66.21;95222.72;5080972;28;20216;-69
2023/12/30 03:01:43;;;;;;;31.80;24.63;;;;;;;3.23;66.71;95224.44;5078649;28;20224;-70
2023/12/30 03:04:08;;;;;;;31.17;21.67;;;;;;;3.49;66.00;95223.53;5070046;28;20235;-70
2023/12/30 03:06:34;;;;;;;31.53;23.37;;;;;;;3.28;66.49;95214.59;5079222;28;20176;-70
2023/12/30 03:08:59;;;;;;;34.00;25.03;;;;;;;3.26;66.50;95211.25;5075448;28;20224;-70
2023/12/30 03:11:25;;;;;;;33.47;25.10;;;;;;;3.33;66.29;95222.09;5074796;28;20270;-71
2023/12/30 03:13:51;;;;;;;31.23;25.20;;;;;;;3.28;66.29;95214.59;5076192;28;20224;-69
2023/12/30 03:16:18;;;;;;;25.57;21.37;;;;;;;3.22;66.44;95213.22;5077449;28;20189;-69
2023/12/30 03:18:44;;;;;;;33.23;22.07;;;;;;;3.35;65.91;95208.06;5079826;28;20237;-70
2023/12/30 03:21:13;;;;;;;29.37;20.20;;;;;;;3.30;65.94;95212.72;5068365;28;20223;-69
2023/12/30 03:23:39;;;;;;;26.43;21.57;;;;;;;3.27;66.00;95212.94;5073034;28;20287;-70
2023/12/30 03:26:06;;;;;;;24.37;20.13;;;;;;;3.23;65.96;95207.09;5060487;28;20224;-69
2023/12/30 03:28:31;;;;;;;25.67;21.27;;;;;;;3.36;66.08;95214.91;5068950;28;20218;-70
2023/12/30 03:30:57;;;;;;;27.70;20.97;;;;;;;3.26;65.95;95211.25;5073517;28;20202;-70
2023/12/30 03:33:24;;;;;;;23.50;19.50;;;;;;;3.27;65.75;95215.53;5071351;28;20217;-70
2023/12/30 03:35:49;;;;;;;28.23;21.20;;;;;;;3.08;66.55;95223.72;5063085;28;20223;-70
2023/12/30 03:38:15;;;;;;;24.13;20.03;;;;;;;3.16;66.77;95215.41;5074410;28;20229;-69
2023/12/30 03:40:40;;;;;;;25.40;20.37;;;;;;;3.15;66.17;95211.97;5073321;28;20251;-69
2023/12/30 03:43:06;;;;;;;26.30;20.00;;;;;;;3.12;66.57;95214.78;5069792;28;20217;-70
2023/12/30 03:45:31;;;;;;;24.07;18.97;;;;;;;3.16;66.45;95221.44;5071020;28;20185;-69
2023/12/30 03:47:56;;;;;;;24.70;19.20;;;;;;;3.14;66.52;95231.09;5077069;28;20284;-69
2023/12/30 03:50:22;;;;;;;25.80;19.50;;;;;;;3.18;66.73;95222.19;5074607;28;20244;-70
2023/12/30 03:52:48;;;;;;;25.40;20.80;;;;;;;3.06;66.55;95226.41;5067304;28;20235;-69
2023/12/30 03:55:14;;;;;;;30.40;24.30;;;;;;;3.06;66.68;95221.22;5072702;28;20196;-70
2023/12/30 03:57:39;;;;;;;30.27;23.87;;;;;;;2.96;66.76;95230.53;5074306;28;20272;-69
2023/12/30 04:00:05;;;;;;;31.10;24.17;;;;;;;2.97;66.52;95223.59;5057515;28;20216;-71
2023/12/30 04:02:30;;;;;;;35.50;25.77;;;;;;;3.14;65.96;95227.69;5070199;28;20256;-70
2023/12/30 04:04:56;;;;;;;31.40;25.67;;;;;;;3.11;65.97;95233.09;5086972;28;20221;-71
2023/12/30 04:07:21;;;;;;;32.07;24.27;;;;;;;3.06;65.59;95235.97;5075747;28;20228;-71
2023/12/30 04:09:47;;;;;;;41.13;29.57;;;;;;;2.82;66.40;95234.03;5077738;28;20267;-70
2023/12/30 04:12:12;;;;;;;38.60;29.60;;;;;;;2.78;66.90;95235.19;5072133;28;20274;-69
2023/12/30 04:14:37;;;;;;;39.13;27.83;;;;;;;2.88;66.27;95238.81;5067889;28;20236;-69
2023/12/30 04:17:03;;;;;;;36.07;26.07;;;;;;;2.93;66.08;95235.94;5071590;28;20221;-70
2023/12/30 04:19:28;;;;;;;35.40;25.47;;;;;;;2.85;66.20;95238.19;5068954;28;20225;-69
2023/12/30 04:21:54;;;;;;;32.37;21.40;;;;;;;3.05;65.34;95235.16;5063327;28;20182;-70
2023/12/30 04:24:22;;;;;;;31.20;23.00;;;;;;;3.02;65.74;95235.34;5068702;28;20225;-70
2023/12/30 04:26:49;;;;;;;29.00;22.00;;;;;;;2.99;66.22;95242.50;5067280;28;20249;-69
2023/12/30 04:29:15;;;;;;;33.10;22.40;;;;;;;3.09;65.67;95238.38;5082794;28;20231;-70
2023/12/30 04:31:40;;;;;;;26.77;21.37;;;;;;;3.11;65.76;95248.66;5075969;28;20224;-71
2023/12/30 04:34:05;;;;;;;29.40;23.73;;;;;;;2.96;66.00;95243.53;5076375;28;20191;-70
2023/12/30 04:36:31;;;;;;;28.73;22.33;;;;;;;3.06;65.71;95238.56;5076925;28;20181;-70
2023/12/30 04:38:56;;;;;;;30.13;23.70;;;;;;;3.05;65.75;95240.34;5076848;28;20303;-70
2023/12/30 04:41:22;;;;;;;32.83;23.37;;;;;;;2.95;66.18;95244.47;5067819;28;20307;-70
2023/12/30 04:43:47;;;;;;;26.03;20.03;;;;;;;2.98;66.51;95243.44;5071722;28;20224;-70
2023/12/30 04:46:13;;;;;;;27.47;20.73;;;;;;;3.01;66.37;95241.47;5078471;28;20497;-70
2023/12/30 04:48:39;;;;;;;25.87;19.60;;;;;;;2.97;66.75;95240.00;5070060;28;20191;-70
2023/12/30 04:51:04;;;;;;;24.10;18.67;;;;;;;2.96;66.41;95242.69;5074674;28;20240;-70
2023/12/30 04:53:30;;;;;;;22.83;17.93;;;;;;;2.97;66.32;95245.22;5068068;28;20225;-70
2023/12/30 04:55:55;;;;;;;20.93;15.67;;;;;;;3.03;66.79;95238.78;5078387;28;20237;-70
2023/12/30 04:58:21;;;;;;;18.73;14.77;;;;;;;3.05;66.77;95250.72;5076563;28;20224;-70
2023/12/30 05:00:46;;;;;;;19.07;15.40;;;;;;;3.06;66.58;95252.38;5078291;28;20604;-70
2023/12/30 05:03:13;;;;;;;26.40;19.40;;;;;;;3.02;66.39;95263.94;5074613;28;20315;-69
2023/12/30 05:05:38;;;;;;;29.27;22.03;;;;;;;2.98;66.47;95259.84;5075416;28;20231;-69
2023/12/30 05:08:04;;;;;;;29.40;20.80;;;;;;;3.00;65.92;95260.59;5072148;28;20219;-70
2023/12/30 05:10:29;;;;;;;32.67;24.43;;;;;;;3.05;66.27;95266.31;5080728;28;20279;-70
2023/12/30 05:12:55;;;;;;;29.33;21.10;;;;;;;2.98;66.40;95266.81;5071111;28;20200;-70
2023/12/30 05:15:20;;;;;;;32.93;25.20;;;;;;;2.80;66.48;95258.44;5071844;28;20232;-70
2023/12/30 05:17:46;;;;;;;33.93;26.70;;;;;;;2.64;67.57;95256.81;5079601;28;20228;-70
2023/12/30 05:20:12;;;;;;;35.60;26.03;;;;;;;2.79;68.13;95274.97;5079524;28;20224;-70
2023/12/30 05:22:40;;;;;;;35.57;28.20;;;;;;;2.87;68.01;95270.94;5082720;28;20235;-70
2023/12/30 05:25:05;;;;;;;32.93;27.20;;;;;;;2.88;68.23;95275.19;5078719;28;20188;-69
2023/12/30 05:27:31;;;;;;;38.50;27.73;;;;;;;2.86;68.15;95271.88;5084256;28;20174;-70
2023/12/30 05:29:57;;;;;;;35.93;25.30;;;;;;;2.88;67.45;95271.75;5084384;28;20221;-68
2023/12/30 05:32:22;;;;;;;36.80;27.33;;;;;;;2.86;67.95;95276.22;5077079;28;20232;-70
2023/12/30 05:34:48;;;;;;;37.03;27.50;;;;;;;2.78;67.69;95273.28;5066897;28;20229;-69
2023/12/30 05:37:13;;;;;;;36.73;28.77;;;;;;;2.88;67.31;95274.34;5075741;28;20224;-69
2023/12/30 05:39:38;;;;;;;34.63;27.67;;;;;;;2.78;67.29;95273.28;5075058;28;20188;-69
2023/12/30 05:42:05;;;;;;;34.53;26.93;;;;;;;2.73;67.54;95270.16;5081792;28;20219;-70
2023/12/30 05:44:30;;;;;;;36.63;27.60;;;;;;;2.81;67.14;95268.75;5071506;28;20224;-70
2023/12/30 05:46:55;;;;;;;36.87;27.87;;;;;;;2.79;67.33;95274.97;5072079;28;20223;-69
2023/12/30 05:49:21;;;;;;;34.13;27.53;;;;;;;2.75;67.29;95274.31;5076703;28;20223;-69
2023/12/30 05:51:47;;;;;;;36.53;27.40;;;;;;;2.96;66.45;95276.47;5070455;28;20388;-69
2023/12/30 05:54:12;;;;;;;44.07;34.87;;;;;;;2.76;67.04;95285.56;5075482;28;20221;-70
2023/12/30 05:56:38;;;;;;;53.43;43.57;;;;;;;2.79;67.00;95293.13;5071736;28;20224;-70
2023/12/30 05:59:04;;;;;;;57.20;47.10;;;;;;;2.68;67.29;95293.81;5075979;28;20220;-70
2023/12/30 06:01:29;;;;;;;57.87;47.33;;;;;;;2.71;67.19;95290.19;5070931;28;20221;-69
2023/12/30 06:03:55;;;;;;;55.30;46.93;;;;;;;2.76;67.00;95291.56;5082304;28;20189;-70
2023/12/30 06:06:20;;;;;;;56.17;45.97;;;;;;;2.68;66.76;95291.22;5078964;28;20226;-70
2023/12/30 06:08:46;;;;;;;53.90;45.33;;;;;;;2.67;67.30;95284.34;5082973;28;20307;-71
2023/12/30 06:11:12;;;;;;;56.40;45.97;;;;;;;2.79;66.78;95285.34;5072833;28;20274;-71
2023/12/30 06:13:41;;;;;;;52.83;43.70;;;;;;;2.80;66.65;95287.00;5076171;28;20223;-70
2023/12/30 06:16:10;;;;;;;47.27;38.63;;;;;;;2.86;66.69;95297.00;5078545;28;20184;-70
2023/12/30 06:18:37;;;;;;;45.17;40.23;;;;;;;2.84;67.26;95299.69;5070437;28;20192;-70
2023/12/30 06:21:04;;;;;;;49.30;38.90;;;;;;;2.69;67.65;95297.25;5069399;28;20226;-71
2023/12/30 06:23:31;;;;;;;50.43;38.93;;;;;;;2.54;68.31;95310.28;5069912;28;20240;-70
2023/12/30 06:25:58;;;;;;;50.10;40.30;;;;;;;2.59;68.38;95305.63;5081018;28;20227;-70
2023/12/30 06:28:26;;;;;;;50.00;39.03;;;;;;;2.61;68.10;95293.34;5075079;28;20238;-71
2023/12/30 06:30:52;;;;;;;50.67;38.97;;;;;;;2.67;68.38;95286.94;5076737;28;20181;-71
2023/12/30 06:33:19;;;;;;;45.60;37.10;;;;;;;2.84;68.08;95296.28;5073446;28;20221;-71
2023/12/30 06:35:45;;;;;;;47.47;34.60;;;;;;;2.83;67.35;95299.78;5079571;28;20228;-71
2023/12/30 06:38:10;;;;;;;51.10;35.37;;;;;;;2.81;67.65;95304.28;5076612;28;20219;-71
2023/12/30 06:40:36;;;;;;;43.80;34.07;;;;;;;2.72;68.11;95302.25;5067848;28;20217;-72
2023/12/30 06:43:02;;;;;;;42.87;34.87;;;;;;;2.75;68.19;95313.25;5068286;28;20181;-70
2023/12/30 06:45:33;;;;;;;53.73;36.00;;;;;;;2.78;67.75;95315.69;5076458;28;20184;-72
2023/12/30 06:47:58;;;;;;;46.37;38.50;;;;;;;2.83;67.64;95311.03;5074864;28;20224;-71
2023/12/30 06:50:24;;;;;;;48.73;34.70;;;;;;;2.84;67.15;95328.28;5073756;28;20276;-71
2023/12/30 06:52:50;;;;;;;44.57;33.70;;;;;;;2.80;67.57;95328.56;5069716;28;20233;-70
2023/12/30 06:55:15;;;;;;;41.73;31.70;;;;;;;2.77;67.56;95323.56;5082976;28;20191;-71
2023/12/30 06:57:41;;;;;;;45.23;35.40;;;;;;;2.74;67.58;95331.53;5076197;28;20233;-70
2023/12/30 07:00:07;;;;;;;44.23;32.77;;;;;;;2.70;67.59;95328.31;5081142;28;20275;-72
2023/12/30 07:02:33;;;;;;;43.63;33.47;;;;;;;2.83;67.32;95338.75;5085874;28;20216;-71
2023/12/30 07:04:59;;;;;;;47.43;34.93;;;;;;;2.76;67.75;95334.88;5075970;28;20224;-71
2023/12/30 07:07:24;;;;;;;50.17;34.57;;;;;;;2.78;67.92;95327.81;5079325;28;20270;-70
2023/12/30 07:09:49;;;;;;;46.20;35.53;;;;;;;2.91;67.64;95328.69;5085106;28;20279;-70
2023/12/30 07:12:15;;;;;;;48.40;36.87;;;;;;;2.90;67.60;95323.63;5082832;28;20232;-71
2023/12/30 07:14:40;;;;;;;42.47;35.13;;;;;;;2.97;67.13;95335.28;5070941;28;20220;-71
2023/12/30 07:17:06;;;;;;;47.53;36.23;;;;;;;3.15;66.92;95334.09;5077844;28;20220;-70
2023/12/30 07:19:31;;;;;;;45.17;37.13;;;;;;;3.13;67.11;95337.72;5073403;28;20306;-70
2023/12/30 07:21:57;;;;;;;44.17;32.17;;;;;;;3.15;67.06;95341.88;5069393;28;20189;-70
2023/12/30 07:24:22;;;;;;;46.83;34.60;;;;;;;2.93;67.61;95342.44;5068055;28;20255;-71
2023/12/30 07:26:47;;;;;;;42.93;32.43;;;;;;;2.95;67.57;95345.78;5073442;28;20221;-72
2023/12/30 07:29:13;;;;;;;50.93;34.43;;;;;;;2.98;67.78;95339.56;5074275;28;20213;-71
2023/12/30 07:31:39;;;;;;;40.63;31.70;;;;;;;3.21;67.16;95344.09;5074870;28;20225;-71
2023/12/30 07:34:04;;;;;;;44.70;33.40;;;;;;;3.29;67.01;95359.22;5078110;28;20197;-70
2023/12/30 07:36:31;;;;;;;43.30;32.57;;;;;;;3.43;66.48;95358.31;5080676;28;20188;-71
2023/12/30 07:38:57;;;;;;;43.43;34.20;;;;;;;3.50;66.57;95355.22;5076166;28;20216;-71
2023/12/30 07:41:23;;;;;;;45.67;31.70;;;;;;;3.62;65.98;95350.13;5071881;28;20240;-71
2023/12/30 07:43:49;;;;;;;48.77;35.33;;;;;;;3.58;66.48;95354.69;5070730;28;20216;-71
2023/12/30 07:46:15;;;;;;;44.90;34.43;;;;;;;3.74;66.61;95357.09;5079173;28;20197;-71
2023/12/30 07:48:40;;;;;;;51.13;37.67;;;;;;;3.82;66.30;95354.00;5080813;28;20289;-71
2023/12/30 07:51:06;;;;;;;50.77;38.07;;;;;;;3.84;66.60;95363.38;5077655;28;20318;-71
2023/12/30 07:53:32;;;;;;;46.53;35.20;;;;;;;3.96;66.19;95354.75;5074959;28;20296;-70
2023/12/30 07:55:58;;;;;;;45.77;36.30;;;;;;;4.15;65.78;95362.16;5079289;28;20231;-71
2023/12/30 07:58:23;;;;;;;43.63;34.20;;;;;;;4.19;65.54;95365.38;5080443;28;20220;-71
2023/12/30 08:00:48;;;;;;;46.30;36.33;;;;;;;4.26;65.61;95365.78;5075487;28;20246;-71
2023/12/30 08:03:14;;;;;;;47.37;35.07;;;;;;;4.28;65.59;95349.13;5077752;28;20327;-71
2023/12/30 08:05:40;;;;;;;47.40;36.13;;;;;;;4.32;65.74;95354.94;5073773;28;20221;-70
2023/12/30 08:08:06;;;;;;;46.73;37.30;;;;;;;4.40;65.53;95360.47;5071092;28;20216;-70
2023/12/30 08:10:32;;;;;;;47.07;36.17;;;;;;;4.61;65.34;95363.34;5066125;28;20224;-71
2023/12/30 08:13:01;;;;;;;46.73;36.27;;;;;;;4.70;64.87;95367.09;5074578;28;20265;-71
2023/12/30 08:15:27;;;;;;;49.03;37.60;;;;;;;4.50;65.79;95365.88;5070373;28;20221;-71
2023/12/30 08:17:52;;;;;;;43.07;36.60;;;;;;;4.53;66.54;95376.91;5084190;28;20277;-70
2023/12/30 08:20:18;;;;;;;45.63;36.07;;;;;;;4.30;66.58;95373.28;5070521;28;20312;-71
2023/12/30 08:22:43;;;;;;;47.43;38.10;;;;;;;4.19;67.22;95374.00;5077762;28;20223;-71
2023/12/30 08:25:09;;;;;;;43.70;34.93;;;;;;;4.34;66.87;95377.34;5066978;28;20189;-70
2023/12/30 08:27:35;;;;;;;39.37;32.60;;;;;;;4.47;66.73;95392.97;5071590;28;20225;-71
2023/12/30 08:30:00;;;;;;;38.23;30.87;;;;;;;4.41;66.90;95395.97;5067983;28;20280;-71
2023/12/30 08:32:26;;;;;;;41.07;32.20;;;;;;;4.48;67.08;95386.81;5076399;28;20220;-70
2023/12/30 08:34:54;;;;;;;40.13;30.97;;;;;;;4.70;66.61;95387.91;5075996;28;20228;-71
2023/12/30 08:37:19;;;;;;;41.23;32.93;;;;;;;4.86;65.93;95391.97;5061281;28;20236;-71
2023/12/30 08:39:45;;;;;;;40.20;32.77;;;;;;;5.09;65.31;95382.50;5072154;28;20192;-71
2023/12/30 08:42:11;;;;;;;38.57;31.77;;;;;;;5.18;64.76;95378.41;5073803;28;20217;-70
2023/12/30 08:44:40;;;;;;;39.23;30.43;;;;;;;5.21;65.00;95373.00;5070925;28;20299;-71
2023/12/30 08:47:06;;;;;;;35.53;29.53;;;;;;;5.38;64.67;95371.78;5071231;28;20269;-71
2023/12/30 08:49:31;;;;;;;38.10;30.70;;;;;;;5.44;64.49;95373.09;5075940;28;20309;-70
2023/12/30 08:51:58;;;;;;;36.33;30.37;;;;;;;5.47;64.82;95372.88;5070853;28;20217;-70
2023/12/30 08:54:24;;;;;;;37.30;31.17;;;;;;;5.44;64.59;95368.69;5076969;28;20213;-72
2023/12/30 08:56:53;;;;;;;35.93;30.70;;;;;;;5.42;64.94;95367.97;5067186;28;20222;-71
2023/12/30 08:59:19;;;;;;;41.37;32.37;;;;;;;5.77;64.01;95368.94;5063605;28;20232;-71
2023/12/30 09:01:44;;;;;;;41.57;32.00;;;;;;;5.73;64.28;95363.13;5070668;28;20224;-71
2023/12/30 09:04:10;;;;;;;36.93;31.53;;;;;;;5.64;64.25;95355.97;5073788;28;20277;-71
2023/12/30 09:06:35;;;;;;;42.90;33.23;;;;;;;5.89;63.87;95344.56;5078491;28;20177;-71
2023/12/30 09:09:01;;;;;;;41.23;33.83;;;;;;;6.10;63.22;95353.41;5077960;28;20219;-71
2023/12/30 09:11:26;;;;;;;45.90;36.50;;;;;;;6.15;62.22;95348.69;5070480;28;20228;-71
2023/12/30 09:13:51;;;;;;;43.57;38.67;;;;;;;6.33;62.00;95356.03;5073322;28;20229;-70
2023/12/30 09:16:17;;;;;;;49.80;40.77;;;;;;;6.43;61.29;95356.16;5070570;28;20204;-71
2023/12/30 09:18:42;;;;;;;46.03;40.43;;;;;;;6.47;60.84;95340.16;5071646;28;20237;-71
2023/12/30 09:21:08;;;;;;;47.87;40.40;;;;;;;6.63;60.72;95353.69;5075994;28;20262;-71
2023/12/30 09:23:34;;;;;;;49.03;40.67;;;;;;;6.67;60.17;95343.00;5060731;28;20212;-71
2023/12/30 09:26:00;;;;;;;49.67;41.13;;;;;;;6.66;60.16;95343.94;5073104;28;20224;-71
2023/12/30 09:28:25;;;;;;;49.67;42.90;;;;;;;6.61;60.05;95320.78;5074919;28;20240;-71
2023/12/30 09:30:50;;;;;;;52.10;43.30;;;;;;;6.77;59.74;95336.09;5070719;28;20249;-72
2023/12/30 09:33:16;;;;;;;53.03;42.93;;;;;;;6.67;60.12;95332.53;5073816;28;20221;-72
2023/12/30 09:35:41;;;;;;;50.83;41.93;;;;;;;6.75;59.88;95330.97;5073051;28;20224;-71
2023/12/30 09:38:07;;;;;;;50.37;41.53;;;;;;;6.74;59.63;95323.28;5071792;28;20224;-71
2023/12/30 09:40:32;;;;;;;49.17;38.43;;;;;;;6.88;59.23;95314.34;5083121;28;20220;-71
2023/12/30 09:43:06;;;;;;;50.33;38.83;;;;;;;6.88;59.26;95312.53;5073459;28;20212;-72
2023/12/30 09:45:34;;;;;;;47.00;38.93;;;;;;;6.92;58.72;95305.28;5078314;28;20220;-70
2023/12/30 09:48:02;;;;;;;43.73;37.07;;;;;;;7.11;58.26;95308.09;5070665;28;20224;-72
2023/12/30 09:50:29;;;;;;;43.93;35.93;;;;;;;7.19;58.38;95308.31;5065532;28;20224;-71
2023/12/30 09:52:54;;;;;;;45.70;39.40;;;;;;;7.25;58.00;95307.00;5074141;28;20288;-72
2023/12/30 09:55:20;;;;;;;46.00;37.70;;;;;;;7.17;58.05;95306.78;5073063;28;20284;-71
2023/12/30 09:57:45;;;;;;;47.93;37.70;;;;;;;7.23;57.73;95303.66;5072595;28;20276;-72
2023/12/30 10:00:15;;;;;;;48.50;37.40;;;;;;;7.31;57.56;95308.28;5070608;28;20224;-70
2023/12/30 10:02:41;;;;;;;46.20;37.87;;;;;;;7.32;57.83;95309.91;5064264;28;20228;-71
2023/12/30 10:05:07;;;;;;;46.17;36.37;;;;;;;7.40;57.59;95300.47;5072235;28;20221;-72
2023/12/30 10:07:34;;;;;;;44.80;38.93;;;;;;;7.51;57.22;95297.84;5074543;28;20702;-70
2023/12/30 10:09:59;;;;;;;46.77;39.37;;;;;;;7.56;57.26;95302.69;5072113;28;20192;-69
2023/12/30 10:12:25;;;;;;;44.40;37.87;;;;;;;7.68;56.78;95303.47;5081639;28;20270;-71
2023/12/30 10:14:50;;;;;;;47.37;37.43;;;;;;;7.85;56.52;95296.81;5074985;28;20293;-71
2023/12/30 10:17:17;;;;;;;45.43;36.07;;;;;;;7.71;56.76;95296.19;5073333;28;20229;-70
2023/12/30 10:19:42;;;;;;;41.97;35.50;;;;;;;7.87;56.48;95293.13;5072042;28;20232;-71
2023/12/30 10:22:08;;;;;;;48.73;37.90;;;;;;;7.90;56.21;95279.75;5072956;28;20208;-71
2023/12/30 10:24:34;;;;;;;50.10;37.67;;;;;;;8.02;56.16;95284.91;5086029;28;20180;-72
2023/12/30 10:27:04;;;;;;;42.87;36.80;;;;;;;8.07;55.82;95274.88;5075248;28;20225;-71
2023/12/30 10:29:29;;;;;;;43.50;36.33;;;;;;;8.15;55.77;95265.44;5074381;28;20221;-72
2023/12/30 10:32:00;;;;;;;44.13;37.50;;;;;;;8.30;54.99;95263.28;5080446;28;20227;-71
2023/12/30 10:34:26;;;;;;;46.97;39.03;;;;;;;8.35;55.03;95265.53;5071208;28;20220;-71
2023/12/30 10:36:52;;;;;;;46.53;36.10;;;;;;;8.22;55.56;95257.06;5079100;28;20192;-73
2023/12/30 10:39:21;;;;;;;47.80;38.67;;;;;;;8.34;55.39;95264.69;5077063;28;20225;-71
2023/12/30 10:41:47;;;;;;;43.67;36.30;;;;;;;8.53;54.99;95263.97;5076578;28;20223;-72
2023/12/30 10:44:12;;;;;;;46.42;38.20;;;;;;;8.61;54.86;95269.38;5083494;28;20299;-71
2023/12/30 10:46:38;;;;;;;42.50;36.13;;;;;;;8.76;54.58;95268.97;5079501;28;20236;-71
2023/12/30 10:49:04;;;;;;;41.07;35.60;;;;;;;8.77;54.30;95254.94;5071368;28;20264;-71
2023/12/30 10:51:33;;;;;;;47.63;38.27;;;;;;;9.04;53.76;95256.91;5077387;28;20258;-70
2023/12/30 10:54:10;;;;;;;47.30;37.77;;;;;;;9.19;53.20;95252.88;5071314;28;20229;-71
2023/12/30 10:56:44;;;;;;;46.50;37.53;;;;;;;9.50;52.81;95252.75;5075921;28;20217;-72
2023/12/30 10:59:12;;;;;;;48.40;36.87;;;;;;;9.38;52.95;95248.63;5079485;28;20252;-71
2023/12/30 11:01:39;;;;;;;42.63;34.67;;;;;;;9.12;53.46;95238.69;5076863;28;20212;-70
2023/12/30 11:04:11;;;;;;;44.57;35.90;;;;;;;9.16;53.41;95234.81;5066185;28;20199;-71
2023/12/30 11:06:51;;;;;;;42.33;34.93;;;;;;;9.25;53.35;95241.88;5069875;28;20192;-71
2023/12/30 11:09:18;;;;;;;44.87;36.47;;;;;;;9.11;53.86;95244.88;5068480;28;20224;-71
2023/12/30 11:11:52;;;;;;;40.00;33.17;;;;;;;9.14;53.78;95236.75;5078095;28;20225;-70
2023/12/30 11:14:17;;;;;;;42.47;36.00;;;;;;;9.11;54.13;95223.88;5073458;28;20230;-71
2023/12/30 11:16:44;;;;;;;39.03;32.88;;;;;;;9.06;54.40;95226.09;5064749;28;20275;-71
2023/12/30 11:19:09;;;;;;;43.07;33.33;;;;;;;9.37;53.70;95231.22;5067471;28;20220;-70